Time;durP1;ratioP1;P1;durP2;ratioP2;P2;SDS_P1;SDS_P2;PMS_P1;PMS_P2;Temp;Humidity;BMP_temperature;BMP_pressure;BME280_temperature;BME280_humidity;BME280_pressure;Samples;Min_cycle;Max_cycle;Signal;HPM_P1;HPM_P2
2022/05/11 00:01:34;;;;;;;;;;;13.40;99.90;;;;;;4995260;28;19928;-62
2022/05/11 00:04:01;;;;;;;;;;;13.40;99.90;;;;;;4995362;28;19922;-63
2022/05/11 00:06:27;;;;;;;;;;;13.50;99.90;;;;;;4995010;28;19929;-62
2022/05/11 00:08:53;;;;;;;;;;;13.50;99.90;;;;;;4995179;28;19979;-62
2022/05/11 00:11:19;;;;;;;;;;;13.50;99.90;;;;;;4995176;28;19921;-62
2022/05/11 00:13:44;;;;;;;;;;;13.50;99.90;;;;;;4995233;28;20072;-63
2022/05/11 00:16:10;;;;;;;;;;;13.50;99.90;;;;;;4994947;28;19925;-62
2022/05/11 00:18:36;;;;;;;;;;;13.40;99.90;;;;;;4994927;28;19922;-62
2022/05/11 00:21:02;;;;;;;;;;;13.40;99.90;;;;;;4994839;28;19937;-63
2022/05/11 00:23:28;;;;;;;;;;;13.50;99.90;;;;;;5052035;28;19920;-62
2022/05/11 00:25:53;;;;;;;;;;;13.50;99.90;;;;;;5096392;28;19920;-62
2022/05/11 00:28:19;;;;;;;;;;;13.50;99.90;;;;;;5096524;28;20419;-62
2022/05/11 00:30:45;;;;;;;;;;;13.50;99.90;;;;;;5096543;28;20014;-62
2022/05/11 00:33:12;;;;;;;;;;;13.50;99.90;;;;;;5096358;28;19942;-62
2022/05/11 00:35:38;;;;;;;;;;;13.50;99.90;;;;;;5078152;28;19924;-63
2022/05/11 00:38:04;;;;;;;;;;;13.50;99.90;;;;;;5077957;28;19931;-63
2022/05/11 00:40:29;;;;;;;;;;;13.50;99.90;;;;;;5095943;28;19920;-63
2022/05/11 00:42:55;;;;;;;;;;;13.50;99.90;;;;;;5096162;28;19971;-62
2022/05/11 00:45:21;;;;;;;;;;;13.60;99.90;;;;;;5096021;28;20023;-62
2022/05/11 00:47:48;;;;;;;;;;;13.60;99.90;;;;;;5096171;28;20321;-62
2022/05/11 00:50:18;;;;;;;;;;;13.60;99.90;;;;;;5096185;28;20265;-62
2022/05/11 00:52:50;;;;;;;;;;;13.60;99.90;;;;;;5096105;28;19920;-63
2022/05/11 00:55:18;;;;;;;;;;;13.70;99.90;;;;;;5095673;28;19924;-62
2022/05/11 00:57:52;;;;;;;;;;;13.70;99.90;;;;;;5095746;28;19983;-63
2022/05/11 01:00:18;;;;;;;;;;;13.70;99.90;;;;;;5095680;28;19920;-63
2022/05/11 01:02:46;;;;;;;;;;;13.70;99.90;;;;;;5095540;28;19921;-63
2022/05/11 01:05:12;;;;;;;;;;;13.80;99.90;;;;;;5095825;28;19920;-63
2022/05/11 01:07:38;;;;;;;;;;;13.70;99.90;;;;;;5094605;28;20019;-63
2022/05/11 01:10:05;;;;;;;;;;;13.80;99.90;;;;;;5095440;28;20054;-63
2022/05/11 01:12:41;;;;;;;;;;;13.80;99.90;;;;;;5095898;28;19975;-63
2022/05/11 01:15:08;;;;;;;;;;;13.80;99.90;;;;;;5095730;28;20062;-62
2022/05/11 01:17:33;;;;;;;;;;;13.80;99.90;;;;;;5095686;28;19935;-62
2022/05/11 01:20:00;;;;;;;;;;;13.80;99.90;;;;;;5077492;28;19924;-63
2022/05/11 01:22:41;;;;;;;;;;;13.80;99.90;;;;;;5095852;28;19931;-63
2022/05/11 01:25:09;;;;;;;;;;;13.80;99.90;;;;;;5095571;28;19927;-62
2022/05/11 01:27:40;;;;;;;;;;;13.80;99.90;;;;;;5095191;28;19926;-64
2022/05/11 01:30:08;;;;;;;;;;;13.80;99.90;;;;;;5060280;28;20377;-62
2022/05/11 01:32:34;;;;;;;;;;;13.80;99.90;;;;;;5095020;28;19920;-62
2022/05/11 01:35:07;;;;;;;;;;;13.80;99.90;;;;;;5094736;28;20022;-63
2022/05/11 01:37:37;;;;;;;;;;;13.80;99.90;;;;;;5094433;28;19934;-62
2022/05/11 01:40:04;;;;;;;;;;;13.80;99.90;;;;;;5094468;28;19924;-61
2022/05/11 01:42:29;;;;;;;;;;;13.80;99.90;;;;;;5094452;28;19982;-61
2022/05/11 01:44:55;;;;;;;;;;;13.80;99.90;;;;;;5094674;28;19971;-62
2022/05/11 01:47:20;;;;;;;;;;;13.80;99.90;;;;;;5094657;28;19928;-61
2022/05/11 01:49:46;;;;;;;;;;;13.80;99.90;;;;;;5094656;28;19927;-61
2022/05/11 01:52:11;;;;;;;;;;;13.80;99.90;;;;;;5094723;28;19970;-61
2022/05/11 01:54:37;;;;;;;;;;;13.80;99.90;;;;;;5094509;28;19984;-61
2022/05/11 01:57:02;;;;;;;;;;;13.80;99.90;;;;;;5094215;28;19932;-61
2022/05/11 01:59:28;;;;;;;;;;;13.80;99.90;;;;;;5094336;28;19920;-61
2022/05/11 02:01:54;;;;;;;;;;;13.70;99.90;;;;;;5076123;28;20340;-62
2022/05/11 02:09:48;;;;;;;;;;;13.70;99.90;;;;;;5094567;28;19920;-61
2022/05/11 02:12:13;;;;;;;;;;;13.70;99.90;;;;;;5094092;28;20436;-62
2022/05/11 02:14:39;;;;;;;;;;;13.70;99.90;;;;;;5093771;28;19931;-62
2022/05/11 02:17:05;;;;;;;;;;;13.70;99.90;;;;;;5076258;28;20022;-61
2022/05/11 02:19:31;;;;;;;;;;;13.60;99.90;;;;;;5075612;28;20255;-62
2022/05/11 02:21:56;;;;;;;;;;;13.60;99.90;;;;;;5093688;28;19924;-61
2022/05/11 02:24:22;;;;;;;;;;;13.70;99.90;;;;;;5076015;28;19935;-62
2022/05/11 02:26:48;;;;;;;;;;;13.60;99.90;;;;;;5093727;28;19921;-61
2022/05/11 02:29:14;;;;;;;;;;;13.60;99.90;;;;;;5093611;28;20283;-61
2022/05/11 02:31:39;;;;;;;;;;;13.70;99.90;;;;;;5074817;28;19924;-62
2022/05/11 02:34:06;;;;;;;;;;;13.60;99.90;;;;;;5093676;28;19993;-62
2022/05/11 02:36:33;;;;;;;;;;;13.60;99.90;;;;;;5093241;28;19964;-62
2022/05/11 02:38:58;;;;;;;;;;;13.60;99.90;;;;;;5075219;28;19927;-61
2022/05/11 02:41:24;;;;;;;;;;;13.70;99.90;;;;;;5093670;28;20434;-62
2022/05/11 02:43:50;;;;;;;;;;;13.70;99.90;;;;;;5093366;28;20301;-62
2022/05/11 02:46:16;;;;;;;;;;;13.70;99.90;;;;;;5093328;28;20334;-61
2022/05/11 02:48:41;;;;;;;;;;;13.70;99.90;;;;;;5093391;28;19920;-61
2022/05/11 02:51:08;;;;;;;;;;;13.70;99.90;;;;;;5093180;28;20342;-61
2022/05/11 02:53:33;;;;;;;;;;;13.70;99.90;;;;;;5093410;28;19969;-61
2022/05/11 02:55:59;;;;;;;;;;;13.70;99.90;;;;;;5093398;28;20356;-61
2022/05/11 02:58:27;;;;;;;;;;;13.70;99.90;;;;;;5093336;28;19920;-61
2022/05/11 03:00:53;;;;;;;;;;;13.70;99.90;;;;;;5074996;28;20007;-61
2022/05/11 03:03:19;;;;;;;;;;;13.70;99.90;;;;;;5092965;28;20003;-61
2022/05/11 03:05:45;;;;;;;;;;;13.70;99.90;;;;;;5093101;28;19928;-61
2022/05/11 03:08:11;;;;;;;;;;;13.60;99.90;;;;;;5093194;28;19926;-62
2022/05/11 03:10:37;;;;;;;;;;;13.60;99.90;;;;;;5093195;28;19920;-61
2022/05/11 03:13:03;;;;;;;;;;;13.60;99.90;;;;;;5093016;28;19928;-61
2022/05/11 03:15:30;;;;;;;;;;;13.60;99.90;;;;;;5093189;28;19982;-62
2022/05/11 03:17:55;;;;;;;;;;;13.60;99.90;;;;;;5093423;28;20241;-61
2022/05/11 03:20:23;;;;;;;;;;;13.60;99.90;;;;;;5092936;28;19931;-61
2022/05/11 03:22:50;;;;;;;;;;;13.60;99.90;;;;;;5092967;28;20297;-61
2022/05/11 03:25:16;;;;;;;;;;;13.60;99.90;;;;;;5093095;28;19966;-62
2022/05/11 03:27:41;;;;;;;;;;;13.60;99.90;;;;;;5092791;28;20342;-61
2022/05/11 03:30:07;;;;;;;;;;;13.60;99.90;;;;;;5092181;28;19924;-61
2022/05/11 03:35:17;;;;;;;;;;;13.60;99.90;;;;;;5092810;28;19924;-61
2022/05/11 03:37:42;;;;;;;;;;;13.60;99.90;;;;;;5092159;28;19935;-61
2022/05/11 03:40:09;;;;;;;;;;;13.60;99.90;;;;;;5092390;28;20294;-62
2022/05/11 03:42:35;;;;;;;;;;;13.50;99.90;;;;;;5092365;28;19946;-61
2022/05/11 03:45:07;;;;;;;;;;;13.50;99.90;;;;;;5092676;28;19934;-61
2022/05/11 03:47:33;;;;;;;;;;;13.60;99.90;;;;;;5092433;28;19960;-61
2022/05/11 03:49:58;;;;;;;;;;;13.60;99.90;;;;;;5092578;28;20020;-62
2022/05/11 03:52:24;;;;;;;;;;;13.60;99.90;;;;;;5092640;28;19969;-61
2022/05/11 03:54:49;;;;;;;;;;;13.60;99.90;;;;;;5074473;28;19964;-61
2022/05/11 03:57:15;;;;;;;;;;;13.60;99.90;;;;;;5092478;28;20435;-61
2022/05/11 03:59:40;;;;;;;;;;;13.60;99.90;;;;;;5074628;28;19920;-61
2022/05/11 04:02:06;;;;;;;;;;;13.60;99.90;;;;;;5092218;28;19924;-61
2022/05/11 04:04:31;;;;;;;;;;;13.60;99.90;;;;;;5092423;28;19959;-62
2022/05/11 04:06:57;;;;;;;;;;;13.60;99.90;;;;;;5092900;28;19920;-62
2022/05/11 04:09:22;;;;;;;;;;;13.60;99.90;;;;;;5093280;28;19928;-63
2022/05/11 04:11:48;;;;;;;;;;;13.60;99.90;;;;;;5092736;28;19924;-63
2022/05/11 04:14:14;;;;;;;;;;;13.60;99.90;;;;;;5092570;28;20329;-63
2022/05/11 04:16:39;;;;;;;;;;;13.70;99.90;;;;;;5092459;28;19931;-63
2022/05/11 04:19:05;;;;;;;;;;;13.60;99.90;;;;;;5092646;28;20003;-63
2022/05/11 04:21:30;;;;;;;;;;;13.70;99.90;;;;;;5092530;28;19920;-62
2022/05/11 04:23:56;;;;;;;;;;;13.70;99.90;;;;;;5092557;28;20277;-62
2022/05/11 04:26:21;;;;;;;;;;;13.70;99.90;;;;;;5092349;28;19966;-62
2022/05/11 04:28:47;;;;;;;;;;;13.70;99.90;;;;;;5092452;28;19927;-62
2022/05/11 04:31:12;;;;;;;;;;;13.70;99.90;;;;;;5092364;28;19924;-62
2022/05/11 04:33:38;;;;;;;;;;;13.60;99.90;;;;;;5092552;28;20367;-62
2022/05/11 04:36:04;;;;;;;;;;;13.70;99.90;;;;;;5092518;28;19924;-62
2022/05/11 04:38:30;;;;;;;;;;;13.70;99.90;;;;;;5092391;28;20023;-62
2022/05/11 04:40:56;;;;;;;;;;;13.80;99.90;;;;;;5093118;28;19924;-62
2022/05/11 04:43:21;;;;;;;;;;;13.80;99.90;;;;;;5096448;28;19946;-62
2022/05/11 04:45:47;;;;;;;;;;;13.80;99.90;;;;;;5077992;28;20559;-62
2022/05/11 04:48:14;;;;;;;;;;;13.80;99.90;;;;;;5094863;28;19924;-62
2022/05/11 04:50:42;;;;;;;;;;;13.90;99.90;;;;;;5096432;28;19924;-63
2022/05/11 04:53:08;;;;;;;;;;;13.80;99.90;;;;;;5096675;28;20039;-63
2022/05/11 04:55:33;;;;;;;;;;;13.90;99.90;;;;;;5096286;28;19966;-63
2022/05/11 04:57:59;;;;;;;;;;;13.80;99.90;;;;;;5095997;28;19928;-62
2022/05/11 05:00:25;;;;;;;;;;;13.80;99.90;;;;;;5096095;28;19920;-62
2022/05/11 05:02:51;;;;;;;;;;;13.90;99.90;;;;;;5095843;28;19927;-63
2022/05/11 05:05:17;;;;;;;;;;;13.90;99.90;;;;;;5095873;28;20282;-62
2022/05/11 05:07:43;;;;;;;;;;;13.90;99.90;;;;;;5095713;28;19927;-62
2022/05/11 05:10:10;;;;;;;;;;;13.90;99.90;;;;;;5095696;28;19965;-62
2022/05/11 05:12:35;;;;;;;;;;;13.90;99.90;;;;;;5095574;28;19924;-62
2022/05/11 05:15:01;;;;;;;;;;;13.90;99.90;;;;;;5095597;28;19927;-62
2022/05/11 05:17:26;;;;;;;;;;;13.90;99.90;;;;;;5095465;28;19928;-62
2022/05/11 05:19:52;;;;;;;;;;;14.00;99.90;;;;;;5095524;28;20394;-62
2022/05/11 05:22:18;;;;;;;;;;;14.00;99.90;;;;;;5060571;28;19927;-62
2022/05/11 05:24:44;;;;;;;;;;;14.00;99.90;;;;;;5077531;28;19924;-62
2022/05/11 05:27:13;;;;;;;;;;;14.00;99.90;;;;;;5095526;28;19920;-62
2022/05/11 05:32:23;;;;;;;;;;;14.10;99.90;;;;;;5095309;28;20289;-62
2022/05/11 05:34:48;;;;;;;;;;;14.10;99.90;;;;;;5095184;28;19920;-62
2022/05/11 05:37:15;;;;;;;;;;;14.20;99.90;;;;;;5095088;28;19935;-62
2022/05/11 05:39:41;;;;;;;;;;;14.20;99.90;;;;;;5095331;28;20025;-62
2022/05/11 05:42:07;;;;;;;;;;;14.20;99.90;;;;;;5095407;28;19974;-62
2022/05/11 05:44:33;;;;;;;;;;;14.20;99.90;;;;;;5095008;28;19924;-62
2022/05/11 05:47:02;;;;;;;;;;;14.30;99.90;;;;;;5094927;28;19927;-62
2022/05/11 05:49:28;;;;;;;;;;;14.30;99.90;;;;;;5095207;28;20372;-62
2022/05/11 05:51:53;;;;;;;;;;;14.40;99.90;;;;;;5095064;28;19920;-62
2022/05/11 05:54:19;;;;;;;;;;;14.30;99.90;;;;;;5094241;28;20343;-62
2022/05/11 05:56:45;;;;;;;;;;;14.40;99.90;;;;;;5094689;28;20457;-62
2022/05/11 05:59:11;;;;;;;;;;;14.40;99.90;;;;;;5094929;28;20016;-63
2022/05/11 06:01:38;;;;;;;;;;;14.50;99.90;;;;;;5094708;28;20011;-62
2022/05/11 06:04:05;;;;;;;;;;;14.60;99.90;;;;;;5076922;28;19920;-62
2022/05/11 06:06:30;;;;;;;;;;;14.60;99.90;;;;;;5094365;28;19923;-61
2022/05/11 06:08:56;;;;;;;;;;;14.60;99.90;;;;;;5094217;28;20386;-62
2022/05/11 06:11:21;;;;;;;;;;;14.60;99.90;;;;;;5075789;28;20285;-63
2022/05/11 06:13:47;;;;;;;;;;;14.60;99.90;;;;;;5094356;28;19927;-62
2022/05/11 06:16:14;;;;;;;;;;;14.70;99.90;;;;;;5094610;28;20283;-62
2022/05/11 06:18:41;;;;;;;;;;;14.70;99.90;;;;;;5094266;28;19920;-61
2022/05/11 06:21:08;;;;;;;;;;;14.80;99.90;;;;;;5094303;28;19920;-61
2022/05/11 06:23:33;;;;;;;;;;;14.90;99.90;;;;;;5094498;28;19926;-61
2022/05/11 06:25:59;;;;;;;;;;;15.00;99.90;;;;;;5094180;28;19920;-60
2022/05/11 06:28:24;;;;;;;;;;;15.00;99.90;;;;;;5094095;28;19920;-61
2022/05/11 06:30:50;;;;;;;;;;;15.10;99.90;;;;;;5093973;28;20378;-61
2022/05/11 06:33:15;;;;;;;;;;;15.10;99.90;;;;;;5094056;28;19946;-61
2022/05/11 06:35:41;;;;;;;;;;;15.30;99.90;;;;;;5094148;28;19928;-60
2022/05/11 06:38:08;;;;;;;;;;;15.50;99.90;;;;;;5093689;28;19924;-61
2022/05/11 06:40:33;;;;;;;;;;;15.60;99.90;;;;;;5075851;28;19924;-61
2022/05/11 06:43:01;;;;;;;;;;;15.60;99.90;;;;;;5075673;28;19920;-60
2022/05/11 06:45:28;;;;;;;;;;;15.70;99.90;;;;;;5075290;28;19920;-61
2022/05/11 06:47:53;;;;;;;;;;;15.70;99.90;;;;;;5093984;28;20007;-61
2022/05/11 06:50:19;;;;;;;;;;;15.70;99.90;;;;;;5093797;28;19994;-61
2022/05/11 06:52:45;;;;;;;;;;;15.70;99.90;;;;;;5093354;28;20255;-61
2022/05/11 07:00:39;;;;;;;;;;;15.60;99.90;;;;;;5093438;28;19920;-62
2022/05/11 07:03:05;;;;;;;;;;;15.60;99.90;;;;;;5093490;28;20336;-62
2022/05/11 07:05:32;;;;;;;;;;;15.70;99.90;;;;;;5074001;28;19920;-63
2022/05/11 07:07:58;;;;;;;;;;;15.70;99.90;;;;;;5093340;28;19925;-63
2022/05/11 07:10:24;;;;;;;;;;;15.70;99.90;;;;;;5093098;28;19927;-63
2022/05/11 07:12:50;;;;;;;;;;;15.70;99.90;;;;;;5092992;28;19967;-62
2022/05/11 07:15:18;;;;;;;;;;;15.70;99.90;;;;;;5093265;28;19924;-61
2022/05/11 07:17:54;;;;;;;;;;;15.80;99.90;;;;;;5092988;28;19928;-63
2022/05/11 07:20:21;;;;;;;;;;;15.90;99.90;;;;;;5092906;28;19920;-61
2022/05/11 07:22:47;;;;;;;;;;;15.90;99.90;;;;;;5092964;28;19974;-62
2022/05/11 07:25:16;;;;;;;;;;;16.00;99.90;;;;;;5093459;28;20393;-62
2022/05/11 07:27:43;;;;;;;;;;;16.00;99.90;;;;;;5093154;28;20282;-62
2022/05/11 07:30:10;;;;;;;;;;;16.10;99.90;;;;;;5057791;28;20362;-63
2022/05/11 07:32:35;;;;;;;;;;;16.10;99.90;;;;;;5092658;28;19920;-62
2022/05/11 07:35:01;;;;;;;;;;;16.20;99.90;;;;;;5093030;28;19924;-63
2022/05/11 07:37:26;;;;;;;;;;;16.20;99.90;;;;;;5092554;28;19924;-63
2022/05/11 07:39:52;;;;;;;;;;;16.50;99.90;;;;;;5093036;28;20320;-63
2022/05/11 07:42:19;;;;;;;;;;;16.60;99.90;;;;;;5092621;28;19920;-63
2022/05/11 07:44:44;;;;;;;;;;;16.70;99.90;;;;;;5092820;28;19986;-63
2022/05/11 07:47:10;;;;;;;;;;;17.00;99.90;;;;;;5074579;28;20366;-62
2022/05/11 07:49:37;;;;;;;;;;;17.10;99.90;;;;;;5092695;28;19957;-63
2022/05/11 07:52:03;;;;;;;;;;;17.20;99.90;;;;;;5092623;28;19924;-63
2022/05/11 07:54:29;;;;;;;;;;;17.30;99.90;;;;;;5092517;28;19920;-62
2022/05/11 07:59:57;;;;;;;;;;;17.30;99.90;;;;;;5092255;28;19927;-63
2022/05/11 08:02:26;;;;;;;;;;;17.40;99.90;;;;;;5092355;28;19924;-63
2022/05/11 08:04:53;;;;;;;;;;;17.40;99.90;;;;;;5092279;28;19919;-63
2022/05/11 08:07:19;;;;;;;;;;;17.50;99.90;;;;;;5092651;28;19943;-63
2022/05/11 08:09:45;;;;;;;;;;;17.70;99.90;;;;;;5092009;28;19995;-63
2022/05/11 08:12:10;;;;;;;;;;;17.80;99.90;;;;;;5092290;28;19960;-63
2022/05/11 08:14:36;;;;;;;;;;;17.80;99.90;;;;;;5092191;28;19920;-62
2022/05/11 08:17:01;;;;;;;;;;;17.80;99.90;;;;;;5095150;28;19920;-62
2022/05/11 08:19:28;;;;;;;;;;;17.80;99.90;;;;;;5096358;28;20399;-62
2022/05/11 08:21:54;;;;;;;;;;;17.80;99.90;;;;;;5096098;28;19977;-63
2022/05/11 08:24:20;;;;;;;;;;;18.10;99.90;;;;;;5096123;28;20338;-63
2022/05/11 08:26:47;;;;;;;;;;;18.30;99.90;;;;;;5077903;28;19927;-63
2022/05/11 08:33:19;;;;;;;;;;;18.20;99.90;;;;;;5077602;28;20294;-63
2022/05/11 08:34:46;;;;;;;;;;;18.30;99.90;;;;;;5095545;28;20275;-63
2022/05/11 08:37:13;;;;;;;;;;;18.10;99.90;;;;;;5095422;28;19976;-63
2022/05/11 08:39:39;;;;;;;;;;;18.20;99.90;;;;;;5095934;28;19924;-62
2022/05/11 08:42:05;;;;;;;;;;;18.30;99.90;;;;;;5095704;28;19920;-63
2022/05/11 08:44:32;;;;;;;;;;;18.30;99.90;;;;;;5095900;28;20372;-63
2022/05/11 08:46:58;;;;;;;;;;;18.20;99.90;;;;;;5095556;28;19924;-63
2022/05/11 08:49:42;;;;;;;;;;;18.30;99.90;;;;;;5095471;28;19998;-63
2022/05/11 08:52:15;;;;;;;;;;;18.20;99.90;;;;;;5077047;28;19920;-63
2022/05/11 08:54:48;;;;;;;;;;;18.10;99.90;;;;;;5095392;28;20017;-63
2022/05/11 08:57:25;;;;;;;;;;;18.00;99.90;;;;;;5095293;28;20006;-62
2022/05/11 08:59:57;;;;;;;;;;;18.10;99.90;;;;;;5095186;28;19924;-63
2022/05/11 09:02:25;;;;;;;;;;;18.10;99.90;;;;;;5095238;28;19971;-63
2022/05/11 09:04:58;;;;;;;;;;;18.20;99.90;;;;;;5095216;28;19920;-63
2022/05/11 09:07:24;;;;;;;;;;;18.10;99.90;;;;;;5095081;28;20362;-62
2022/05/11 09:09:53;;;;;;;;;;;18.20;99.90;;;;;;5095265;28;19920;-63
2022/05/11 09:12:20;;;;;;;;;;;18.30;99.90;;;;;;5094949;28;20007;-64
2022/05/11 09:14:49;;;;;;;;;;;18.30;99.90;;;;;;5095021;28;20278;-62
2022/05/11 09:17:35;;;;;;;;;;;18.30;99.90;;;;;;5095098;28;19920;-62
2022/05/11 09:20:22;;;;;;;;;;;18.60;99.90;;;;;;5094947;28;19962;-63
2022/05/11 09:22:58;;;;;;;;;;;18.60;99.90;;;;;;5094688;28;19927;-63
2022/05/11 09:25:26;;;;;;;;;;;18.70;99.90;;;;;;5095194;28;20007;-63
2022/05/11 09:28:10;;;;;;;;;;;19.20;99.90;;;;;;5094017;28;19920;-63
2022/05/11 09:30:36;;;;;;;;;;;19.60;99.90;;;;;;5094468;28;19971;-61
2022/05/11 09:33:24;;;;;;;;;;;20.00;99.90;;;;;;5094337;28;19971;-61
2022/05/11 09:35:50;;;;;;;;;;;20.40;99.90;;;;;;5083451;28;19993;-61
2022/05/11 09:38:17;;;;;;;;;;;20.40;99.90;;;;;;5093483;28;20393;-59
2022/05/11 09:40:59;;;;;;;;;;;20.70;99.90;;;;;;5094339;28;20011;-60
2022/05/11 09:43:35;;;;;;;;;;;20.90;99.90;;;;;;5094222;28;19920;-60
2022/05/11 09:46:19;;;;;;;;;;;21.10;99.90;;;;;;5094416;28;19920;-60
2022/05/11 09:49:01;;;;;;;;;;;21.10;99.90;;;;;;5094457;28;20369;-60
2022/05/11 09:51:42;;;;;;;;;;;20.90;99.90;;;;;;5094294;28;19981;-60
2022/05/11 09:54:13;;;;;;;;;;;20.70;99.90;;;;;;5094399;28;19924;-60
2022/05/11 09:56:39;;;;;;;;;;;20.90;99.90;;;;;;5094240;28;19956;-61
2022/05/11 09:59:23;;;;;;;;;;;20.90;99.90;;;;;;5094040;28;19923;-60
2022/05/11 10:01:52;;;;;;;;;;;20.40;99.90;;;;;;5075370;28;19924;-60
2022/05/11 10:04:22;;;;;;;;;;;20.20;99.90;;;;;;5094096;28;19934;-60
2022/05/11 10:06:52;;;;;;;;;;;20.50;99.90;;;;;;5093864;28;20366;-60
2022/05/11 10:09:26;;;;;;;;;;;20.80;99.90;;;;;;5093931;28;19920;-60
2022/05/11 10:11:51;;;;;;;;;;;20.80;99.90;;;;;;5093845;28;19920;-60
2022/05/11 10:22:39;;;;;;;;;;;20.70;99.90;;;;;;5093503;28;19967;-60
2022/05/11 10:25:04;;;;;;;;;;;21.00;99.90;;;;;;5093411;28;19920;-59
2022/05/11 10:27:30;;;;;;;;;;;21.10;99.90;;;;;;5093496;28;19927;-59
2022/05/11 10:29:58;;;;;;;;;;;20.90;99.90;;;;;;5093576;28;20540;-59
2022/05/11 10:32:27;;;;;;;;;;;20.70;99.90;;;;;;5093579;28;19963;-59
2022/05/11 10:35:08;;;;;;;;;;;20.70;99.90;;;;;;5093407;28;19931;-60
2022/05/11 10:37:46;;;;;;;;;;;20.90;99.90;;;;;;5093064;28;19930;-60
2022/05/11 10:40:18;;;;;;;;;;;21.00;99.90;;;;;;5074563;28;19926;-60
2022/05/11 10:43:04;;;;;;;;;;;20.80;99.90;;;;;;5093407;28;20371;-60
2022/05/11 10:45:35;;;;;;;;;;;21.00;99.90;;;;;;5010839;28;20387;-60
2022/05/11 10:48:11;;;;;;;;;;;20.90;99.90;;;;;;5011157;28;19932;-60
2022/05/11 10:50:40;;;;;;;;;;;20.80;99.90;;;;;;5011078;28;19964;-60
2022/05/11 10:53:14;;;;;;;;;;;20.50;99.90;;;;;;5010963;28;20395;-60
2022/05/11 10:55:58;;;;;;;;;;;20.10;99.90;;;;;;5010728;28;19929;-65
2022/05/11 10:58:29;;;;;;;;;;;20.20;99.90;;;;;;5010948;28;19922;-61
2022/05/11 11:01:09;;;;;;;;;;;20.00;99.90;;;;;;5011042;28;20021;-62
2022/05/11 11:04:04;;;;;;;;;;;19.80;99.90;;;;;;5010883;28;20315;-63
2022/05/11 11:09:28;;;;;;;;;;;19.70;99.90;;;;;;5010745;28;19978;-60
2022/05/11 11:12:12;;;;;;;;;;;19.60;99.90;;;;;;5010740;28;19948;-60
2022/05/11 11:14:41;;;;;;;;;;;19.40;99.90;;;;;;4994465;28;20441;-60
2022/05/11 11:17:09;;;;;;;;;;;19.20;99.90;;;;;;5010551;28;20379;-60
2022/05/11 11:19:36;;;;;;;;;;;19.20;99.90;;;;;;5010448;28;20383;-60
2022/05/11 11:22:04;;;;;;;;;;;19.40;99.90;;;;;;5032366;28;19920;-60
2022/05/11 11:24:30;;;;;;;;;;;19.50;99.90;;;;;;5092818;28;19920;-60
2022/05/11 11:26:57;;;;;;;;;;;19.50;99.90;;;;;;5092550;28;19974;-61
2022/05/11 11:29:25;;;;;;;;;;;19.40;99.90;;;;;;5092249;28;19976;-61
2022/05/11 11:32:11;;;;;;;;;;;19.60;99.90;;;;;;5092348;28;20282;-61
2022/05/11 11:34:48;;;;;;;;;;;19.50;99.90;;;;;;5092462;28;19921;-61
2022/05/11 11:37:32;;;;;;;;;;;19.60;99.90;;;;;;5092319;28;19949;-61
2022/05/11 11:40:19;;;;;;;;;;;20.00;99.90;;;;;;5092297;28;19959;-61
2022/05/11 11:42:45;;;;;;;;;;;20.00;99.90;;;;;;5092416;28;20384;-61
2022/05/11 11:45:30;;;;;;;;;;;20.00;99.90;;;;;;5092329;28;20417;-61
2022/05/11 11:48:00;;;;;;;;;;;20.00;99.90;;;;;;5073763;28;19920;-62
2022/05/11 11:51:01;;;;;;;;;;;20.00;99.90;;;;;;5091656;28;20366;-61
2022/05/11 11:53:34;;;;;;;;;;;19.90;99.90;;;;;;5010215;28;19971;-60
2022/05/11 11:56:17;;;;;;;;;;;20.10;99.90;;;;;;5010138;28;20365;-61
2022/05/11 11:58:43;;;;;;;;;;;20.10;99.90;;;;;;5010353;28;19936;-61
2022/05/11 12:01:10;;;;;;;;;;;20.60;99.90;;;;;;5010209;28;19922;-60
2022/05/11 12:03:50;;;;;;;;;;;20.80;99.90;;;;;;5010241;28;19922;-60
2022/05/11 12:17:25;;;;;;;;;;;21.00;99.90;;;;;;5010206;28;19925;-60
2022/05/11 12:19:58;;;;;;;;;;;21.10;99.90;;;;;;5009668;28;19925;-60
2022/05/11 12:22:25;;;;;;;;;;;21.00;99.90;;;;;;5009914;28;20369;-60
2022/05/11 12:25:09;;;;;;;;;;;21.30;99.90;;;;;;5009992;28;19921;-60
2022/05/11 12:27:36;;;;;;;;;;;21.60;99.90;;;;;;5009798;28;19922;-60
2022/05/11 12:30:15;;;;;;;;;;;21.80;99.90;;;;;;5086170;28;19964;-60
2022/05/11 12:32:47;;;;;;;;;;;21.90;99.90;;;;;;5092145;28;19943;-61
2022/05/11 12:35:17;;;;;;;;;;;22.20;99.90;;;;;;5091911;28;20302;-60
2022/05/11 12:37:43;;;;;;;;;;;22.30;99.70;;;;;;5091555;28;19928;-60
2022/05/11 12:40:13;;;;;;;;;;;22.40;99.90;;;;;;5091759;28;20396;-60
2022/05/11 12:42:40;;;;;;;;;;;22.50;99.90;;;;;;5091645;28;19920;-60
2022/05/11 12:45:14;;;;;;;;;;;22.50;99.70;;;;;;5092036;28;20003;-60
2022/05/11 12:47:43;;;;;;;;;;;22.30;99.20;;;;;;5091675;28;19927;-60
2022/05/11 12:50:13;;;;;;;;;;;22.30;99.30;;;;;;5091611;28;19927;-60
2022/05/11 12:52:39;;;;;;;;;;;22.30;98.90;;;;;;5091861;28;19924;-60
2022/05/11 12:55:04;;;;;;;;;;;22.40;98.00;;;;;;5091924;28;19935;-60
2022/05/11 12:57:38;;;;;;;;;;;22.40;98.20;;;;;;5092074;28;20362;-59
2022/05/11 13:00:11;;;;;;;;;;;22.40;95.90;;;;;;5091556;28;19942;-60
2022/05/11 13:02:39;;;;;;;;;;;22.20;96.50;;;;;;5091928;28;20435;-60
2022/05/11 13:05:09;;;;;;;;;;;22.20;97.70;;;;;;5095212;28;19927;-60
2022/05/11 13:07:39;;;;;;;;;;;22.30;98.40;;;;;;5095090;28;19927;-60
2022/05/11 13:10:06;;;;;;;;;;;22.50;98.50;;;;;;5095117;28;20324;-60
2022/05/11 13:12:33;;;;;;;;;;;22.20;97.70;;;;;;5095255;28;19980;-60
2022/05/11 13:15:00;;;;;;;;;;;22.20;97.50;;;;;;5076645;28;20275;-60
2022/05/11 13:17:35;;;;;;;;;;;22.10;97.50;;;;;;5094963;28;19973;-59
2022/05/11 13:20:06;;;;;;;;;;;22.20;97.80;;;;;;5094696;28;19920;-59
2022/05/11 13:22:32;;;;;;;;;;;22.40;98.40;;;;;;5095101;28;19931;-59
2022/05/11 13:25:05;;;;;;;;;;;22.30;97.70;;;;;;5094936;28;19920;-59
2022/05/11 13:27:37;;;;;;;;;;;22.40;98.60;;;;;;5094895;28;19920;-59
2022/05/11 13:30:21;;;;;;;;;;;22.30;98.60;;;;;;5094680;28;20383;-59
2022/05/11 13:32:48;;;;;;;;;;;22.00;98.30;;;;;;5076346;28;19946;-60
2022/05/11 13:35:13;;;;;;;;;;;21.80;99.20;;;;;;5094599;28;20015;-59
2022/05/11 13:37:39;;;;;;;;;;;21.70;99.50;;;;;;5094323;28;20016;-60
2022/05/11 13:40:05;;;;;;;;;;;21.80;99.00;;;;;;5094641;28;19920;-60
2022/05/11 13:42:30;;;;;;;;;;;21.70;99.30;;;;;;5094358;28;19920;-60
2022/05/11 13:45:00;;;;;;;;;;;21.60;99.70;;;;;;5094710;28;20410;-60
2022/05/11 13:50:26;;;;;;;;;;;21.20;99.90;;;;;;5094399;28;20003;-60
2022/05/11 13:52:53;;;;;;;;;;;20.90;99.90;;;;;;5094321;28;19920;-60
2022/05/11 13:55:42;;;;;;;;;;;20.80;99.90;;;;;;5094065;28;19924;-60
2022/05/11 13:58:23;;;;;;;;;;;20.50;99.90;;;;;;5012087;28;20370;-59
2022/05/11 14:00:49;;;;;;;;;;;20.60;99.90;;;;;;5011914;28;19922;-59
2022/05/11 14:03:15;;;;;;;;;;;21.00;99.90;;;;;;5011986;28;19921;-59
2022/05/11 14:05:43;;;;;;;;;;;21.10;99.90;;;;;;5011884;28;19921;-60
2022/05/11 14:08:10;;;;;;;;;;;21.50;99.90;;;;;;5011874;28;19929;-59
2022/05/11 14:10:35;;;;;;;;;;;21.20;99.90;;;;;;5011768;28;19932;-60
2022/05/11 14:13:01;;;;;;;;;;;21.20;99.90;;;;;;5011247;28;20420;-60
2022/05/11 14:15:26;;;;;;;;;;;21.40;99.90;;;;;;5008599;28;19925;-59
2022/05/11 14:17:52;;;;;;;;;;;21.30;99.90;;;;;;4997339;28;19922;-60
2022/05/11 14:20:20;;;;;;;;;;;21.00;99.80;;;;;;4992306;28;19922;-60
2022/05/11 14:22:45;;;;;;;;;;;21.10;99.90;;;;;;4992146;28;19922;-61
2022/05/11 14:25:13;;;;;;;;;;;20.80;99.90;;;;;;5008435;28;20008;-60
2022/05/11 14:27:38;;;;;;;;;;;20.80;99.90;;;;;;5011304;28;19968;-61
2022/05/11 14:30:04;;;;;;;;;;;20.80;99.90;;;;;;5011398;28;20386;-61
2022/05/11 14:32:32;;;;;;;;;;;20.80;99.90;;;;;;5011574;28;19972;-59
2022/05/11 14:34:58;;;;;;;;;;;20.90;99.90;;;;;;5038824;28;19920;-59
2022/05/11 14:37:24;;;;;;;;;;;20.70;99.90;;;;;;5073182;28;19978;-62
2022/05/11 14:39:50;;;;;;;;;;;20.60;99.80;;;;;;5055609;28;19927;-63
2022/05/11 14:42:16;;;;;;;;;;;20.30;99.90;;;;;;5073382;28;19920;-62
2022/05/11 14:44:41;;;;;;;;;;;20.10;99.90;;;;;;5073019;28;19920;-62
2022/05/11 14:47:08;;;;;;;;;;;20.10;99.90;;;;;;5073123;28;19927;-62
2022/05/11 14:49:34;;;;;;;;;;;20.10;99.90;;;;;;5073252;28;20374;-62
2022/05/11 14:52:00;;;;;;;;;;;20.20;99.90;;;;;;5055110;28;19931;-61
2022/05/11 14:54:25;;;;;;;;;;;20.00;99.80;;;;;;5073368;28;19974;-62
2022/05/11 15:01:55;;;;;;;;;;;20.00;99.80;;;;;;5073143;28;19928;-62
2022/05/11 15:02:30;;;;;;;;;;;19.70;99.90;;;;;;4991596;28;20036;-62
2022/05/11 15:04:56;;;;;;;;;;;19.50;99.90;;;;;;4991644;28;20725;-61
2022/05/11 15:07:21;;;;;;;;;;;19.20;99.90;;;;;;4991620;28;19926;-61
2022/05/11 15:09:47;;;;;;;;;;;19.30;99.90;;;;;;4975564;28;19921;-61
2022/05/11 15:15:07;;;;;;;;;;;19.20;99.90;;;;;;4975156;28;20413;-62
2022/05/11 15:17:33;;;;;;;;;;;19.20;99.90;;;;;;4991493;28;19933;-61